• Join FlightAware (Why Join?)
  • Login
  • US Flag 
05:42PM EST


 

Airport Tracker/Info


-or-


 

Live Flight TrackerFlight Track Log ✈ UCA596 ✈ 22-Feb-2014 ✈ KIAD - KBGM

Flight Track Log - Related Links

Times and Time Zones

All times are in EST time to prevent confusion due to time zone crossing. See the UCA596 flight status page for this flight to view local times or setup timezone preferences in your user account.

Time Position Orientation Groundspeed Altitude Reporting Facility
EST Latitude Longitude Course Direction KTS MPH feet Rate Location/Type
01:00PM 38.9500 -77.5000 322° Northwest 132 152 1,500  Level Potomac TRACON
01:01PM 38.9833 -77.5333 302° West 174 200 2,700 1,440 Climbing Potomac TRACON
01:02PM 39.0333 -77.5667 333° Northwest 184 212 4,400 1,440 Climbing Potomac TRACON
01:03PM 39.0667 -77.5500 21° North 198 228 5,500 1,260 Climbing Potomac TRACON
01:05PM 39.1519 -77.5400 North 200 230 7,700 1,260 Climbing Washington Center
01:06PM 39.2083 -77.5308 North 200 230 8,900 1,320 Climbing Washington Center
01:07PM 39.2669 -77.5192 North 200 230 10,400 1,440 Climbing Washington Center
01:08PM 39.3233 -77.5100 North 200 230 11,800 1,260 Climbing Washington Center
01:09PM 39.3797 -77.5006 North 200 230 12,900 1,020 Climbing Washington Center
01:10PM 39.4361 -77.4914 North 200 230 13,900 1,140 Climbing Washington Center
01:11PM 39.4967 -77.4794 North 206 237 15,200 600 Climbing Washington Center
01:13PM 39.6722 -77.4494 North 249 287 16,000 180 Climbing New York Center
01:14PM 39.7408 -77.4506 359° North 263 303 16,000  Level New York Center
01:15PM 39.8250 -77.4397 North 274 315 16,000  Level New York Center
01:16PM 39.8958 -77.4006 23° Northeast 292 336 16,000  Level New York Center
01:17PM 39.9797 -77.3569 22° Northeast 298 343 16,000  Level New York Center
01:18PM 40.0464 -77.3197 23° Northeast 298 343 16,000  Level New York Center
01:19PM 40.1278 -77.2786 21° North 293 337 16,000  Level New York Center
01:20PM 40.2011 -77.2364 24° Northeast 288 331 16,000  Level New York Center
01:21PM 40.2761 -77.1972 22° Northeast 282 325 16,000  Level New York Center
01:22PM 40.3514 -77.1553 23° Northeast 282 325 16,000  Level New York Center
01:23PM 40.4244 -77.1156 22° Northeast 282 325 16,000  Level New York Center
01:24PM 40.4994 -77.0761 22° Northeast 282 325 16,000  Level New York Center
01:25PM 40.5747 -77.0339 23° Northeast 282 325 16,000  Level New York Center
01:26PM 40.6478 -76.9911 24° Northeast 282 325 16,000 -60 Level New York Center
01:27PM 40.7228 -76.9542 20° North 277 319 15,900 -60 Descending New York Center
01:28PM 40.7936 -76.9139 23° Northeast 277 319 15,900  Level New York Center
01:29PM 40.8708 -76.8714 23° Northeast 283 326 15,900  Level New York Center
01:30PM 40.9481 -76.8289 23° Northeast 283 326 15,900  Level New York Center
01:31PM 41.0211 -76.7858 24° Northeast 283 326 15,900  Level New York Center
01:32PM 41.0875 -76.7478 23° Northeast 283 326 15,900  Level New York Center
01:33PM 41.1628 -76.7047 23° Northeast 283 326 15,900 60 Level New York Center
01:34PM 41.2442 -76.6567 24° Northeast 283 326 16,100 60 Climbing New York Center
01:35PM 41.3128 -76.6211 21° North 283 326 16,100  Level New York Center
01:36PM 41.3900 -76.5753 24° Northeast 283 326 16,100  Level New York Center
01:37PM 41.4733 -76.5300 22° Northeast 283 326 16,100  Level New York Center
01:38PM 41.5461 -76.4892 23° Northeast 283 326 16,100 -300 Level New York Center
01:39PM 41.6211 -76.4483 22° Northeast 282 325 15,600 -900 Descending New York Center
01:40PM 41.6897 -76.4042 26° Northeast 289 333 14,400 -1,440 Descending New York Center
01:41PM 41.7656 -76.3439 31° Northeast 305 351 12,800 -1,860 Descending New York Center
01:42PM 41.8458 -76.2753 32° Northeast 312 359 10,700 -2,100 Descending New York Center
01:43PM 41.9125 -76.2253 29° Northeast 294 338 8,600 -1,860 Descending New York Center
01:44PM 41.9778 -76.1664 34° Northeast 282 325 7,000 -1,620 Descending New York Center
01:45PM 42.0242 -76.1058 44° Northeast 263 303 5,400 -1,080 Descending New York Center
01:46PM 42.0747 -76.0486 40° Northeast 247 284 4,900 -480 Descending New York Center
01:47PM 42.1083 -75.9953 50° Northeast 218 251 4,500 -600 Descending New York Center
01:48PM 42.1378 -75.9361 56° Northeast 198 228 3,800 -720 Descending New York Center
01:49PM 42.1728 -75.8997 38° Northeast 176 203 3,100 -660 Descending New York Center
01:50PM 42.2056 -75.9133 343° North 125 144 2,500 -540 Descending New York Center
01:51PM 42.2253 -75.9347 321° Northwest 87 100 2,100 6,720 Descending New York Center
01:52PM 42.2522 -75.9422 348° North 87 100 16,000 6,900 Climbing New York Center
01:53PM 42.2767 -75.9528 342° North 87 100 16,000  Level New York Center
01:55PM 42.2000 -75.9667 236° Southwest  Level FlightAware Approximate
02:02PM 42.2084 -75.9796 236° Southwest  Level Estimated